Time;durP1;ratioP1;P1;durP2;ratioP2;P2;SDS_P1;SDS_P2;PMS_P1;PMS_P2;Temp;Humidity;BMP_temperature;BMP_pressure;BME280_temperature;BME280_humidity;BME280_pressure;Samples;Min_cycle;Max_cycle;Signal;HPM_P1;HPM_P2
2023/05/01 00:01:31;;;;;;;6.63;5.57;;;;;;;-143.99;100.00;64180.81;6089432;29;20232;-81
2023/05/01 00:04:53;;;;;;;5.80;3.73;;;;;;;-143.99;100.00;64180.81;6084070;28;20655;-81
2023/05/01 00:08:14;;;;;;;4.90;3.23;;;;;;;-143.99;100.00;64180.81;6078898;29;20232;-80
2023/05/01 00:11:36;;;;;;;4.10;3.23;;;;;;;-143.99;100.00;64180.81;6072071;29;20233;-82
2023/05/01 00:14:57;;;;;;;3.83;3.30;;;;;;;-143.99;100.00;64180.81;6075827;29;20273;-80
2023/05/01 00:18:18;;;;;;;4.13;2.77;;;;;;;-143.99;100.00;64180.81;6079277;29;20232;-80
2023/05/01 00:21:40;;;;;;;3.83;3.20;;;;;;;-143.99;100.00;64180.81;6090044;29;20236;-81
2023/05/01 00:25:01;;;;;;;5.63;3.70;;;;;;;-143.99;100.00;64180.81;6083874;28;20658;-80
2023/05/01 00:28:22;;;;;;;4.67;4.23;;;;;;;-143.99;100.00;64180.81;6087056;29;20236;-79
2023/05/01 00:31:43;;;;;;;3.73;3.43;;;;;;;-143.99;100.00;64180.81;6070828;29;20244;-80
2023/05/01 00:35:04;;;;;;;4.77;4.13;;;;;;;-143.99;100.00;64180.81;6077696;29;20623;-80
2023/05/01 00:38:26;;;;;;;5.13;3.47;;;;;;;-143.99;100.00;64180.81;6086531;29;20233;-79
2023/05/01 00:41:47;;;;;;;7.07;4.27;;;;;;;-143.99;100.00;64180.81;6078958;29;20237;-79
2023/05/01 00:45:09;;;;;;;5.80;2.83;;;;;;;-143.99;100.00;64180.81;6076398;29;20220;-81
2023/05/01 00:48:30;;;;;;;4.63;3.83;;;;;;;-143.99;100.00;64180.81;6086796;29;20228;-80
2023/05/01 00:51:53;;;;;;;3.97;3.67;;;;;;;-143.99;100.00;64180.81;6079723;29;20236;-82
2023/05/01 00:55:16;;;;;;;4.37;3.27;;;;;;;-143.99;100.00;64180.81;6077598;29;20245;-81
2023/05/01 00:58:38;;;;;;;4.40;3.63;;;;;;;-143.99;100.00;64180.81;6088498;29;20240;-82
2023/05/01 01:01:59;;;;;;;5.17;3.13;;;;;;;-143.99;100.00;64180.81;6077763;29;20240;-81
2023/05/01 01:05:24;;;;;;;9.97;5.20;;;;;;;-143.99;100.00;64180.81;6083330;29;20362;-82
2023/05/01 01:08:55;;;;;;;3.60;3.30;;;;;;;-143.99;100.00;64180.81;6083664;29;20319;-82
2023/05/01 01:12:24;;;;;;;4.20;3.77;;;;;;;-143.99;100.00;64180.81;6079469;29;20240;-80
2023/05/01 01:15:53;;;;;;;4.43;3.17;;;;;;;-143.99;100.00;64180.81;6076560;29;20662;-82
2023/05/01 01:19:44;;;;;;;3.73;3.03;;;;;;;-143.99;100.00;64180.81;6078250;29;20521;-82
2023/05/01 01:23:24;;;;;;;3.50;3.20;;;;;;;-143.99;100.00;64180.81;6076498;29;20229;-80
2023/05/01 01:27:13;;;;;;;3.67;3.37;;;;;;;-143.99;100.00;64180.81;6075715;29;20232;-84
2023/05/01 01:30:48;;;;;;;4.43;3.83;;;;;;;-143.99;100.00;64180.81;6085349;29;20231;-81
2023/05/01 01:34:14;;;;;;;2.73;2.20;;;;;;;-143.99;100.00;64180.81;6068046;29;21041;-82
2023/05/01 01:37:43;;;;;;;4.07;3.67;;;;;;;-143.99;100.00;64180.81;6089800;29;20248;-81
2023/05/01 01:41:09;;;;;;;3.87;2.77;;;;;;;-143.99;100.00;64180.81;6077330;29;20333;-81
2023/05/01 01:44:34;;;;;;;3.40;3.07;;;;;;;-143.99;100.00;64180.81;6077156;29;20235;-81
2023/05/01 01:47:56;;;;;;;4.07;3.50;;;;;;;-143.99;100.00;64180.81;6083372;28;20240;-81
2023/05/01 01:51:21;;;;;;;3.57;3.27;;;;;;;-143.99;100.00;64180.81;6087496;29;20244;-81
2023/05/01 01:54:47;;;;;;;8.10;3.07;;;;;;;-143.99;100.00;64180.81;6074702;29;20595;-81
2023/05/01 01:58:10;;;;;;;2.80;2.50;;;;;;;-143.99;100.00;64180.81;6092007;29;20224;-81
2023/05/01 02:01:34;;;;;;;2.87;2.07;;;;;;;-143.99;100.00;64180.81;6086775;29;20229;-80
2023/05/01 02:04:56;;;;;;;5.57;4.17;;;;;;;-143.99;100.00;64180.81;6077786;29;20229;-80
2023/05/01 02:08:20;;;;;;;3.13;2.57;;;;;;;-143.99;100.00;64180.81;6082392;29;20739;-81
2023/05/01 02:11:41;;;;;;;4.70;3.27;;;;;;;-143.99;100.00;64180.81;6083899;29;20240;-80
2023/05/01 02:15:03;;;;;;;3.43;2.77;;;;;;;-143.99;100.00;64180.81;6062854;29;20343;-80
2023/05/01 02:18:27;;;;;;;3.83;2.50;;;;;;;-143.99;100.00;64180.81;6077104;29;20237;-81
2023/05/01 02:21:50;;;;;;;2.53;2.17;;;;;;;-143.99;100.00;64180.81;6065051;29;20236;-81
2023/05/01 02:25:13;;;;;;;2.50;2.10;;;;;;;-143.99;100.00;64180.81;6086283;28;20311;-82
2023/05/01 02:28:37;;;;;;;2.73;2.53;;;;;;;-143.99;100.00;64180.81;6081041;29;21844;-82
2023/05/01 02:31:59;;;;;;;6.30;2.50;;;;;;;-143.99;100.00;64180.81;6079112;29;20233;-82
2023/05/01 02:35:21;;;;;;;2.00;1.90;;;;;;;-143.99;100.00;64180.81;6077840;29;20226;-82
2023/05/01 02:38:42;;;;;;;4.67;2.40;;;;;;;-143.99;100.00;64180.81;6089055;29;20257;-83
2023/05/01 02:42:08;;;;;;;4.27;2.57;;;;;;;-143.99;100.00;64180.81;6098475;29;20237;-82
2023/05/01 02:45:31;;;;;;;3.67;2.73;;;;;;;-143.99;100.00;64180.81;6092803;29;20220;-82
2023/05/01 02:48:53;;;;;;;2.37;1.67;;;;;;;-143.99;100.00;64180.81;6090737;29;20236;-81
2023/05/01 02:52:16;;;;;;;2.40;2.07;;;;;;;-143.99;100.00;64180.81;6096914;29;20584;-82
2023/05/01 02:55:38;;;;;;;2.27;1.97;;;;;;;-143.99;100.00;64180.81;6090149;29;21121;-82
2023/05/01 02:59:01;;;;;;;4.50;2.30;;;;;;;-143.99;100.00;64180.81;6077865;29;20225;-82
2023/05/01 03:02:21;;;;;;;3.40;2.00;;;;;;;-143.99;100.00;64180.81;6099270;29;20245;-82
2023/05/01 03:05:42;;;;;;;3.70;2.30;;;;;;;-143.99;100.00;64180.81;6088718;29;20691;-83
2023/05/01 03:09:03;;;;;;;4.07;1.83;;;;;;;-143.99;100.00;64180.81;6090282;29;20229;-81
2023/05/01 03:12:24;;;;;;;3.17;2.43;;;;;;;-143.99;100.00;64180.81;6098169;28;20245;-81
2023/05/01 03:15:46;;;;;;;4.43;2.53;;;;;;;-143.99;100.00;64180.81;6082462;29;20239;-81
2023/05/01 03:19:08;;;;;;;3.03;2.23;;;;;;;-143.99;100.00;64180.81;6092294;29;20405;-82
2023/05/01 03:22:31;;;;;;;2.67;2.00;;;;;;;-143.99;100.00;64180.81;6079869;29;20236;-81
2023/05/01 03:25:53;;;;;;;3.83;2.43;;;;;;;-143.99;100.00;64180.81;6089127;28;20229;-82
2023/05/01 03:29:15;;;;;;;5.50;3.13;;;;;;;-143.99;100.00;64180.81;6079348;29;20228;-83
2023/05/01 03:32:38;;;;;;;2.97;2.57;;;;;;;-143.99;100.00;64180.81;6101811;29;20225;-83
2023/05/01 03:36:02;;;;;;;3.87;2.17;;;;;;;-143.99;100.00;64180.81;6094399;29;20232;-83
2023/05/01 03:39:24;;;;;;;5.37;2.57;;;;;;;-143.99;100.00;64180.81;6069404;29;20615;-81
2023/05/01 03:43:23;;;;;;;5.07;2.90;;;;;;;-143.99;100.00;64180.81;6083534;29;20646;-81
2023/05/01 03:46:45;;;;;;;3.00;2.80;;;;;;;-143.99;100.00;64180.81;6089183;29;20283;-80
2023/05/01 03:50:14;;;;;;;5.03;3.87;;;;;;;-143.99;100.00;64180.81;6104686;28;20323;-81
2023/05/01 03:53:36;;;;;;;3.90;2.47;;;;;;;-143.99;100.00;64180.81;6081545;29;20217;-81
2023/05/01 03:56:59;;;;;;;3.50;2.43;;;;;;;-143.99;100.00;64180.81;6101723;28;20323;-80
2023/05/01 04:00:20;;;;;;;3.83;2.23;;;;;;;-143.99;100.00;64180.81;6083260;29;20240;-81
2023/05/01 04:03:41;;;;;;;7.03;2.60;;;;;;;-143.99;100.00;64180.81;6088989;29;20248;-81
2023/05/01 04:07:03;;;;;;;2.57;2.17;;;;;;;-143.99;100.00;64180.81;6084186;29;20502;-81
2023/05/01 04:10:25;;;;;;;3.20;2.23;;;;;;;-143.99;100.00;64180.81;6061860;29;20233;-81
2023/05/01 04:13:53;;;;;;;2.47;2.00;;;;;;;-143.99;100.00;64180.81;6072652;29;20240;-82
2023/05/01 04:17:14;;;;;;;4.13;3.63;;;;;;;-143.99;100.00;64180.81;6082901;29;20233;-82
2023/05/01 04:20:35;;;;;;;2.77;2.53;;;;;;;-143.99;100.00;64180.81;6070704;29;20236;-81
2023/05/01 04:23:58;;;;;;;16.43;3.07;;;;;;;-143.99;100.00;64180.81;6094066;28;20237;-82
2023/05/01 04:27:19;;;;;;;2.60;2.27;;;;;;;-143.99;100.00;64180.81;6092598;29;20225;-83
2023/05/01 04:30:40;;;;;;;3.10;2.43;;;;;;;-143.99;100.00;64180.81;6083109;29;20227;-83
2023/05/01 04:34:01;;;;;;;3.17;2.87;;;;;;;-143.99;100.00;64180.81;6092352;28;20509;-82
2023/05/01 04:37:22;;;;;;;3.57;1.77;;;;;;;-143.99;100.00;64180.81;6095802;29;20332;-83
2023/05/01 04:40:44;;;;;;;2.40;2.20;;;;;;;-143.99;100.00;64180.81;6087126;29;20228;-83
2023/05/01 04:44:05;;;;;;;2.90;2.70;;;;;;;-143.99;100.00;64180.81;6088737;29;20224;-83
2023/05/01 04:47:26;;;;;;;3.23;2.47;;;;;;;-143.99;100.00;64180.81;6082184;29;20229;-82
2023/05/01 04:50:47;;;;;;;2.50;1.87;;;;;;;-143.99;100.00;64180.81;6077791;29;20243;-83
2023/05/01 04:54:09;;;;;;;2.23;2.07;;;;;;;-143.99;100.00;64180.81;6083447;29;20327;-82
2023/05/01 04:57:32;;;;;;;1.57;1.47;;;;;;;-143.99;100.00;64180.81;6081930;29;20240;-82
2023/05/01 05:00:55;;;;;;;3.50;2.10;;;;;;;-143.99;100.00;64180.81;6074180;29;20259;-81
2023/05/01 05:04:18;;;;;;;6.47;2.30;;;;;;;-143.99;100.00;64180.81;6075711;29;20260;-82
2023/05/01 05:07:39;;;;;;;3.30;1.50;;;;;;;-143.99;100.00;64180.81;6067149;29;20229;-82
2023/05/01 05:11:21;;;;;;;3.27;2.97;;;;;;;-143.99;100.00;64180.81;6062210;29;20237;-83
2023/05/01 05:14:56;;;;;;;5.53;2.63;;;;;;;-143.99;100.00;64180.81;6071702;29;20236;-86
2023/05/01 05:18:18;;;;;;;2.30;1.83;;;;;;;-143.99;100.00;64180.81;6088530;29;20532;-81
2023/05/01 05:21:39;;;;;;;2.57;2.20;;;;;;;-143.99;100.00;64180.81;6083748;29;20232;-82
2023/05/01 05:25:02;;;;;;;3.47;1.83;;;;;;;-143.99;100.00;64180.81;6100786;28;20548;-83
2023/05/01 05:28:24;;;;;;;3.67;3.23;;;;;;;-143.99;100.00;64180.81;6080247;29;21018;-83
2023/05/01 05:31:46;;;;;;;2.43;2.33;;;;;;;-143.99;100.00;64180.81;6073121;29;20249;-83
2023/05/01 05:35:08;;;;;;;3.63;2.80;;;;;;;-143.99;100.00;64180.81;6086280;29;20391;-83
2023/05/01 05:38:29;;;;;;;2.00;1.73;;;;;;;-143.99;100.00;64180.81;6079875;29;20240;-82
2023/05/01 05:41:53;;;;;;;4.23;2.27;;;;;;;-143.99;100.00;64180.81;6087289;29;20243;-81
2023/05/01 05:45:15;;;;;;;3.60;2.00;;;;;;;-143.99;100.00;64180.81;6083356;29;20691;-83
2023/05/01 05:48:38;;;;;;;4.07;2.50;;;;;;;-143.99;100.00;64180.81;6086381;29;20952;-83
2023/05/01 05:51:58;;;;;;;1.90;1.80;;;;;;;-143.99;100.00;64180.81;6082697;29;20228;-81
2023/05/01 05:55:20;;;;;;;2.67;1.57;;;;;;;-143.99;100.00;64180.81;6077338;29;20232;-80
2023/05/01 05:58:53;;;;;;;2.57;2.13;;;;;;;-143.99;100.00;64180.81;6083186;29;22390;-81
2023/05/01 06:02:14;;;;;;;4.33;2.30;;;;;;;-143.99;100.00;64180.81;6099064;29;20623;-82
2023/05/01 06:05:37;;;;;;;5.23;2.20;;;;;;;-143.99;100.00;64180.81;6085607;29;20511;-83
2023/05/01 06:08:58;;;;;;;2.43;2.10;;;;;;;-143.99;100.00;64180.81;6081285;28;20228;-82
2023/05/01 06:12:19;;;;;;;2.70;2.50;;;;;;;-143.99;100.00;64180.81;6094209;29;20264;-82
2023/05/01 06:15:40;;;;;;;6.67;2.57;;;;;;;-143.99;100.00;64180.81;6081853;29;20229;-83
2023/05/01 06:19:01;;;;;;;10.43;1.60;;;;;;;-143.99;100.00;64180.81;6078349;29;20244;-81
2023/05/01 06:22:23;;;;;;;2.67;1.60;;;;;;;-143.99;100.00;64180.81;6090896;29;20875;-81
2023/05/01 06:26:00;;;;;;;6.37;3.93;;;;;;;-143.99;100.00;64180.81;6082479;29;20232;-79
2023/05/01 06:29:21;;;;;;;5.10;2.70;;;;;;;-143.99;100.00;64180.81;6083827;29;20530;-79
2023/05/01 06:32:42;;;;;;;5.50;2.57;;;;;;;-143.99;100.00;64180.81;6083149;29;20238;-82
2023/05/01 06:36:04;;;;;;;2.77;2.50;;;;;;;-143.99;100.00;64180.81;6084991;29;20387;-81
2023/05/01 06:39:27;;;;;;;3.47;2.50;;;;;;;-143.99;100.00;64180.81;6093952;28;20240;-84
2023/05/01 06:42:47;;;;;;;3.97;2.63;;;;;;;-143.99;100.00;64180.81;6081244;29;20237;-82
2023/05/01 06:46:09;;;;;;;2.50;2.23;;;;;;;-143.99;100.00;64180.81;6073032;28;20607;-84
2023/05/01 06:49:30;;;;;;;2.83;2.30;;;;;;;-143.99;100.00;64180.81;6085320;28;20232;-84
2023/05/01 06:52:51;;;;;;;6.33;3.07;;;;;;;-143.99;100.00;64180.81;6092466;29;20232;-82
2023/05/01 06:56:13;;;;;;;2.60;1.90;;;;;;;-143.99;100.00;64180.81;6083037;29;20324;-83
2023/05/01 06:59:34;;;;;;;3.57;3.07;;;;;;;-143.99;100.00;64180.81;6087014;29;20228;-82
2023/05/01 07:02:55;;;;;;;2.53;2.33;;;;;;;-143.99;100.00;64180.81;6081555;29;20623;-81
2023/05/01 07:06:15;;;;;;;3.73;1.93;;;;;;;-143.99;100.00;64180.81;6089556;29;20233;-80
2023/05/01 07:09:37;;;;;;;2.33;1.97;;;;;;;-143.99;100.00;64180.81;6073548;29;20582;-83
2023/05/01 07:13:00;;;;;;;2.47;2.27;;;;;;;-143.99;100.00;64180.81;6077684;29;20276;-82
2023/05/01 07:16:21;;;;;;;2.27;2.07;;;;;;;-143.99;100.00;64180.81;6078246;29;20589;-82
2023/05/01 07:19:42;;;;;;;3.30;2.47;;;;;;;-143.99;100.00;64180.81;6079185;28;20244;-81
2023/05/01 07:23:03;;;;;;;3.00;2.30;;;;;;;-143.99;100.00;64180.81;6078704;29;20316;-81
2023/05/01 07:26:26;;;;;;;3.20;2.43;;;;;;;-143.99;100.00;64180.81;6080032;29;20606;-80
2023/05/01 07:29:50;;;;;;;3.47;2.47;;;;;;;-143.99;100.00;64180.81;6080952;29;20299;-82
2023/05/01 07:33:11;;;;;;;3.80;2.73;;;;;;;-143.99;100.00;64180.81;6083976;29;20233;-82
2023/05/01 07:36:32;;;;;;;5.23;2.57;;;;;;;-143.99;100.00;64180.81;6084438;29;20244;-83
2023/05/01 07:39:56;;;;;;;2.17;1.97;;;;;;;-143.99;100.00;64180.81;6077424;29;20252;-86
2023/05/01 07:43:17;;;;;;;3.43;2.47;;;;;;;-143.99;100.00;64180.81;6069226;29;20572;-85
2023/05/01 07:46:39;;;;;;;3.30;2.33;;;;;;;-143.99;100.00;64180.81;6080370;29;20505;-77
2023/05/01 07:50:00;;;;;;;3.13;2.87;;;;;;;-143.99;100.00;64180.81;6074176;29;20232;-83
2023/05/01 07:53:22;;;;;;;4.20;2.17;;;;;;;-143.99;100.00;64180.81;6087583;29;20233;-84
2023/05/01 07:56:43;;;;;;;5.13;1.43;;;;;;;-143.99;100.00;64180.81;6084968;29;20323;-83
2023/05/01 08:00:05;;;;;;;3.13;2.13;;;;;;;-143.99;100.00;64180.81;6064091;29;20598;-84
2023/05/01 08:03:35;;;;;;;8.67;2.70;;;;;;;-143.99;100.00;64180.81;6074592;29;20240;-82
2023/05/01 08:06:56;;;;;;;2.70;1.83;;;;;;;-143.99;100.00;64180.81;6070445;28;20752;-79
2023/05/01 08:10:17;;;;;;;4.47;2.53;;;;;;;-143.99;100.00;64180.81;6052405;29;20938;-75
2023/05/01 08:13:38;;;;;;;4.63;3.03;;;;;;;-143.99;100.00;64180.81;6074518;29;20245;-79
2023/05/01 08:16:59;;;;;;;42.80;15.57;;;;;;;-143.99;100.00;64180.81;6077507;29;20233;-76
2023/05/01 08:20:21;;;;;;;39.37;35.77;;;;;;;-143.99;100.00;64180.81;6078816;29;20247;-76
2023/05/01 08:23:42;;;;;;;69.97;57.73;;;;;;;-143.99;100.00;64180.81;6078159;29;20233;-77
2023/05/01 08:27:03;;;;;;;6.97;6.17;;;;;;;-143.99;100.00;64180.81;6078723;28;20228;-77
2023/05/01 08:30:25;;;;;;;2.67;2.40;;;;;;;-143.99;100.00;64180.81;6071373;29;20251;-77
2023/05/01 08:33:46;;;;;;;4.83;2.23;;;;;;;-143.99;100.00;64180.81;6062211;29;20236;-77
2023/05/01 08:37:08;;;;;;;4.53;2.20;;;;;;;-143.99;100.00;64180.81;6068665;29;20589;-77
2023/05/01 08:40:33;;;;;;;5.17;2.33;;;;;;;-143.99;100.00;64180.81;6043132;29;20596;-76
2023/05/01 08:43:56;;;;;;;4.93;3.03;;;;;;;-143.99;100.00;64180.81;6052210;29;20239;-78
2023/05/01 08:47:18;;;;;;;2.97;2.10;;;;;;;-143.99;100.00;64180.81;6060576;29;20236;-77
2023/05/01 08:50:40;;;;;;;3.37;2.23;;;;;;;-143.99;100.00;64180.81;6044120;29;20228;-77
2023/05/01 08:54:03;;;;;;;6.50;2.10;;;;;;;-143.99;100.00;64180.81;6051618;29;20244;-76
2023/05/01 08:57:26;;;;;;;4.13;2.07;;;;;;;-143.99;100.00;64180.81;6051860;29;20643;-76
2023/05/01 09:00:47;;;;;;;2.50;1.87;;;;;;;-143.99;100.00;64180.81;6051761;28;20240;-77
2023/05/01 09:04:09;;;;;;;4.07;2.43;;;;;;;-143.99;100.00;64180.81;6047424;29;20576;-76
2023/05/01 09:07:30;;;;;;;4.90;3.30;;;;;;;-143.99;100.00;64180.81;6061685;29;20236;-78
2023/05/01 09:10:53;;;;;;;2.07;1.97;;;;;;;-143.99;100.00;64180.81;6064340;29;20236;-76
2023/05/01 09:14:16;;;;;;;2.50;2.10;;;;;;;-143.99;100.00;64180.81;6054163;28;20232;-78
2023/05/01 09:17:37;;;;;;;2.13;1.73;;;;;;;-143.99;100.00;64180.81;6075615;29;20244;-77
2023/05/01 09:20:58;;;;;;;8.37;2.73;;;;;;;-143.99;100.00;64180.81;6068792;29;20507;-76
2023/05/01 09:24:19;;;;;;;3.63;1.87;;;;;;;-143.99;100.00;64180.81;6059815;29;20243;-77
2023/05/01 09:27:42;;;;;;;4.33;1.57;;;;;;;-143.99;100.00;64180.81;6073042;29;20797;-77
2023/05/01 09:31:20;;;;;;;3.50;1.73;;;;;;;-143.99;100.00;64180.81;6068291;29;20225;-77
2023/05/01 09:34:42;;;;;;;2.63;1.37;;;;;;;-143.99;100.00;64180.81;6071935;29;20241;-75
2023/05/01 09:38:03;;;;;;;1.97;1.67;;;;;;;-143.99;100.00;64180.81;6078648;29;20640;-77
2023/05/01 09:41:24;;;;;;;1.50;1.40;;;;;;;-143.99;100.00;64180.81;6071519;29;22279;-77
2023/05/01 09:44:47;;;;;;;3.37;2.80;;;;;;;-143.99;100.00;64180.81;6071422;29;20255;-77
2023/05/01 09:48:10;;;;;;;3.53;2.03;;;;;;;-143.99;100.00;64180.81;6081752;28;20285;-83
2023/05/01 09:51:32;;;;;;;3.40;2.17;;;;;;;-143.99;100.00;64180.81;6072620;29;20244;-83
2023/05/01 09:55:12;;;;;;;3.03;1.80;;;;;;;-143.99;100.00;64180.81;6079041;29;20232;-81
2023/05/01 09:58:33;;;;;;;1.83;1.60;;;;;;;-143.99;100.00;64180.81;6078879;29;20503;-86
2023/05/01 10:01:55;;;;;;;1.80;1.70;;;;;;;-143.99;100.00;64180.81;6061694;29;20663;-87
2023/05/01 10:05:17;;;;;;;3.53;2.33;;;;;;;-143.99;100.00;64180.81;6074884;29;20236;-82
2023/05/01 10:08:46;;;;;;;2.07;1.43;;;;;;;-143.99;100.00;64180.81;6083403;29;20228;-79
2023/05/01 10:12:07;;;;;;;2.53;1.85;;;;;;;-143.99;100.00;64180.81;6078828;28;20240;-78
2023/05/01 10:15:36;;;;;;;2.22;1.50;;;;;;;-143.99;100.00;64180.81;6069005;29;20319;-81
2023/05/01 10:19:00;;;;;;;2.08;1.75;;;;;;;-143.99;100.00;64180.81;6063797;28;20236;-80
2023/05/01 10:22:21;;;;;;;2.25;2.05;;;;;;;-143.99;100.00;64180.81;6089511;29;20232;-75
2023/05/01 10:25:44;;;;;;;2.20;1.50;;;;;;;-143.99;100.00;64180.81;6073973;29;20232;-79
2023/05/01 10:29:06;;;;;;;2.57;1.77;;;;;;;-143.99;100.00;64180.81;6068554;29;20513;-77
2023/05/01 10:32:27;;;;;;;2.03;1.33;;;;;;;-143.99;100.00;64180.81;6088595;29;20236;-83
2023/05/01 10:35:57;;;;;;;2.75;1.50;;;;;;;-143.99;100.00;64180.81;6058869;29;20336;-77
2023/05/01 10:39:33;;;;;;;2.73;1.70;;;;;;;-143.99;100.00;64180.81;6066905;28;20290;-75
2023/05/01 10:43:14;;;;;;;2.67;2.15;;;;;;;-143.99;100.00;64180.81;6083780;29;20232;-80
2023/05/01 10:46:35;;;;;;;5.97;2.67;;;;;;;-143.99;100.00;64180.81;6071333;29;20249;-78
2023/05/01 10:50:06;;;;;;;2.20;1.98;;;;;;;-143.99;100.00;64180.81;6088954;29;20322;-80
2023/05/01 10:53:29;;;;;;;6.18;1.98;;;;;;;-143.99;100.00;64180.81;6402080;23;20238;-81
2023/05/01 10:56:50;;;;;;;3.05;1.38;;;;;;;-143.99;100.00;64180.81;6106875;28;20272;-79
2023/05/01 11:00:12;;;;;;;2.13;2.03;;;;;;;-143.99;100.00;64180.81;6124769;28;20243;-76
2023/05/01 11:03:39;;;;;;;0.80;0.80;;;;;;;-143.99;100.00;64180.81;6147478;28;20247;-76
2023/05/01 11:07:16;;;;;;;4.03;1.77;;;;;;;-143.99;100.00;64180.81;6139947;28;20231;-77
2023/05/01 11:10:38;;;;;;;3.13;2.42;;;;;;;-143.99;100.00;64180.81;6135621;28;20764;-77
2023/05/01 11:14:00;;;;;;;2.95;1.20;;;;;;;-143.99;100.00;64180.81;6124743;28;20640;-77
2023/05/01 11:17:45;;;;;;;2.13;1.52;;;;;;;-143.99;100.00;64180.81;6146111;28;20239;-77
2023/05/01 11:21:07;;;;;;;1.50;1.20;;;;;;;-143.99;100.00;64180.81;6129996;28;20277;-80
2023/05/01 11:24:32;;;;;;;3.25;1.33;;;;;;;-143.99;100.00;64180.81;6139168;28;20231;-82
2023/05/01 11:27:56;;;;;;;2.42;1.30;;;;;;;-143.99;100.00;64180.81;6144399;28;20592;-77
2023/05/01 11:31:17;;;;;;;2.08;1.23;;;;;;;-143.99;100.00;64180.81;6145753;28;20235;-77
2023/05/01 11:34:38;;;;;;;1.42;1.25;;;;;;;-143.99;100.00;64180.81;6136543;28;20238;-77
2023/05/01 11:37:59;;;;;;;4.10;1.45;;;;;;;-143.99;100.00;64180.81;6147926;28;20231;-80
2023/05/01 11:41:21;;;;;;;2.28;0.93;;;;;;;-143.99;100.00;64180.81;6152802;28;20238;-81
2023/05/01 11:44:43;;;;;;;1.15;1.02;;;;;;;-143.99;100.00;64180.81;6140727;28;20234;-82
2023/05/01 11:48:04;;;;;;;0.90;0.90;;;;;;;-143.99;100.00;64180.81;6153102;28;20231;-79
2023/05/01 11:51:26;;;;;;;1.20;1.10;;;;;;;-143.99;100.00;64180.81;6145525;28;20234;-80
2023/05/01 11:54:48;;;;;;;2.58;1.80;;;;;;;-143.99;100.00;64180.81;6141796;28;20245;-82
2023/05/01 11:58:09;;;;;;;4.60;1.73;;;;;;;-143.99;100.00;64180.81;6141049;28;20235;-82
2023/05/01 12:01:36;;;;;;;4.38;3.97;;;;;;;-143.99;100.00;64180.81;6143999;28;20254;-84
2023/05/01 12:04:56;;;;;;;5.55;4.78;;;;;;;-143.99;100.00;64180.81;6144454;28;20230;-85
2023/05/01 12:08:19;;;;;;;1.90;1.65;;;;;;;-143.99;100.00;64180.81;6141167;28;20243;-81
2023/05/01 12:11:40;;;;;;;3.28;1.42;;;;;;;-143.99;100.00;64180.81;6142451;28;20231;-84
2023/05/01 12:15:01;;;;;;;3.53;1.30;;;;;;;-143.99;100.00;64180.81;6133428;28;20243;-85
2023/05/01 12:18:24;;;;;;;1.67;1.50;;;;;;;-143.99;100.00;64180.81;6135226;28;20251;-87
2023/05/01 12:21:58;;;;;;;3.17;1.23;;;;;;;-143.99;100.00;64180.81;6141784;28;20242;-85
2023/05/01 12:25:19;;;;;;;1.98;1.83;;;;;;;-143.99;100.00;64180.81;6139973;28;20226;-85
2023/05/01 12:28:56;;;;;;;1.35;1.25;;;;;;;-143.99;100.00;64180.81;6126995;28;20334;-88
2023/05/01 12:32:17;;;;;;;1.63;1.33;;;;;;;-143.99;100.00;64180.81;6133706;28;20219;-86
2023/05/01 12:35:49;;;;;;;2.85;2.17;;;;;;;-143.99;100.00;64180.81;6140272;28;20311;-85
2023/05/01 12:39:11;;;;;;;3.83;3.42;;;;;;;-143.99;100.00;64180.81;6121987;28;21876;-88
2023/05/01 12:42:37;;;;;;;5.00;2.85;;;;;;;-143.99;100.00;64180.81;6136847;28;20223;-86
2023/05/01 12:45:59;;;;;;;3.38;1.77;;;;;;;-143.99;100.00;64180.81;6103125;28;20235;-85
2023/05/01 12:49:25;;;;;;;1.33;1.20;;;;;;;-143.99;100.00;64180.81;6123012;28;20239;-85
2023/05/01 12:52:50;;;;;;;1.42;1.33;;;;;;;-143.99;100.00;64180.81;6127568;28;20785;-85
2023/05/01 12:56:24;;;;;;;2.15;1.17;;;;;;;-143.99;100.00;64180.81;6111784;28;20287;-85
2023/05/01 12:59:48;;;;;;;2.67;1.05;;;;;;;-143.99;100.00;64180.81;6138000;28;20230;-80
2023/05/01 13:03:09;;;;;;;6.68;1.20;;;;;;;-143.99;100.00;64180.81;6142633;28;20219;-86
2023/05/01 13:06:36;;;;;;;5.88;1.42;;;;;;;-143.99;100.00;64180.81;6137761;28;20231;-79
2023/05/01 13:09:59;;;;;;;2.55;1.58;;;;;;;-143.99;100.00;64180.81;6123822;28;20230;-80
2023/05/01 13:13:26;;;;;;;1.83;1.40;;;;;;;-143.99;100.00;64180.81;6131712;28;20231;-81
2023/05/01 13:16:46;;;;;;;1.98;1.55;;;;;;;-143.99;100.00;64180.81;6135963;28;20231;-76
2023/05/01 13:20:09;;;;;;;3.72;1.23;;;;;;;-143.99;100.00;64180.81;6134876;28;20314;-74
2023/05/01 13:23:30;;;;;;;1.45;1.35;;;;;;;-143.99;100.00;64180.81;6132063;28;20546;-81
2023/05/01 13:27:01;;;;;;;1.55;1.20;;;;;;;-143.99;100.00;64180.81;6126156;28;20242;-79
2023/05/01 13:30:32;;;;;;;2.88;1.95;;;;;;;-143.99;100.00;64180.81;6143086;28;20325;-79
2023/05/01 13:33:55;;;;;;;1.48;1.38;;;;;;;-143.99;100.00;64180.81;6122789;28;20239;-75
2023/05/01 13:37:16;;;;;;;1.83;1.70;;;;;;;-143.99;100.00;64180.81;6142176;28;20317;-77
2023/05/01 13:40:39;;;;;;;2.85;2.55;;;;;;;-143.99;100.00;64180.81;6128594;28;20317;-78
2023/05/01 13:44:02;;;;;;;2.47;1.10;;;;;;;-143.99;100.00;64180.81;6129285;28;21493;-77
2023/05/01 13:47:25;;;;;;;2.00;1.65;;;;;;;-143.99;100.00;64180.81;6151516;28;20231;-78
2023/05/01 13:50:47;;;;;;;4.13;2.50;;;;;;;-143.99;100.00;64180.81;6148381;28;20227;-77
2023/05/01 13:54:09;;;;;;;2.53;1.90;;;;;;;-143.99;100.00;64180.81;6130066;28;20231;-77
2023/05/01 13:57:31;;;;;;;1.40;1.25;;;;;;;-143.99;100.00;64180.81;6150224;28;20239;-78
2023/05/01 14:00:53;;;;;;;2.65;1.73;;;;;;;-143.99;100.00;64180.81;6144630;28;20230;-76
2023/05/01 14:04:18;;;;;;;1.90;1.60;;;;;;;-143.99;100.00;64180.81;6129928;28;20234;-77
2023/05/01 14:07:45;;;;;;;1.45;0.93;;;;;;;-143.99;100.00;64180.81;6149137;28;20234;-77
2023/05/01 14:11:07;;;;;;;1.08;0.98;;;;;;;-143.99;100.00;64180.81;6137941;28;20309;-78
2023/05/01 14:14:28;;;;;;;3.10;1.30;;;;;;;-143.99;100.00;64180.81;6139646;28;20238;-77
2023/05/01 14:17:51;;;;;;;1.98;1.02;;;;;;;-143.99;100.00;64180.81;6140020;28;20989;-76
2023/05/01 14:21:14;;;;;;;2.58;1.25;;;;;;;-143.99;100.00;64180.81;6138328;28;20605;-77
2023/05/01 14:24:36;;;;;;;4.70;1.55;;;;;;;-143.99;100.00;64180.81;6140025;28;20233;-76
2023/05/01 14:28:01;;;;;;;2.40;1.10;;;;;;;-143.99;100.00;64180.81;6149660;28;20510;-77
2023/05/01 14:31:27;;;;;;;2.47;1.23;;;;;;;-143.99;100.00;64180.81;6145232;28;20238;-77
2023/05/01 14:34:49;;;;;;;1.30;1.20;;;;;;;-143.99;100.00;64180.81;6137261;28;20234;-78
2023/05/01 14:38:12;;;;;;;1.40;1.15;;;;;;;-143.99;100.00;64180.81;6149156;28;20243;-77
2023/05/01 14:41:37;;;;;;;1.15;1.05;;;;;;;-143.99;100.00;64180.81;6127577;28;20243;-77
2023/05/01 14:44:58;;;;;;;4.78;1.38;;;;;;;-143.99;100.00;64180.81;6137320;28;20313;-76
2023/05/01 14:48:22;;;;;;;1.05;0.80;;;;;;;-143.99;100.00;64180.81;6151766;28;20222;-76
2023/05/01 14:51:44;;;;;;;1.02;0.90;;;;;;;-143.99;100.00;64180.81;6145988;28;20310;-77
2023/05/01 14:55:06;;;;;;;2.75;1.55;;;;;;;-143.99;100.00;64180.81;6148224;28;20223;-76
2023/05/01 14:58:26;;;;;;;1.67;1.33;;;;;;;-143.99;100.00;64180.81;6140954;28;20227;-77
2023/05/01 15:01:48;;;;;;;2.97;1.65;;;;;;;-143.99;100.00;64180.81;6139822;28;20250;-75
2023/05/01 15:05:09;;;;;;;1.45;1.35;;;;;;;-143.99;100.00;64180.81;6130644;28;20687;-76
2023/05/01 15:08:32;;;;;;;1.10;1.05;;;;;;;-143.99;100.00;64180.81;6150790;28;20251;-76
2023/05/01 15:11:53;;;;;;;1.48;1.38;;;;;;;-143.99;100.00;64180.81;6137614;28;20241;-76
2023/05/01 15:15:14;;;;;;;2.10;1.45;;;;;;;-143.99;100.00;64180.81;6158563;28;20592;-78
2023/05/01 15:18:35;;;;;;;3.03;1.42;;;;;;;-143.99;100.00;64180.81;6149064;28;20246;-78
2023/05/01 15:21:57;;;;;;;2.28;1.10;;;;;;;-143.99;100.00;64180.81;6144856;28;20231;-78
2023/05/01 15:25:19;;;;;;;1.35;0.95;;;;;;;-143.99;100.00;64180.81;6151692;28;20227;-78